sensor_id;sensor_type;location;lat;lon;timestamp;P1;durP1;ratioP1;P2;durP2;ratioP2
19905;SDS011;10115;50.906;4.438;2022-07-22T00:02:10;8.83;;;2.63;;
19905;SDS011;10115;50.906;4.438;2022-07-22T00:04:36;5.30;;;2.93;;
19905;SDS011;10115;50.906;4.438;2022-07-22T00:07:01;8.20;;;2.97;;
19905;SDS011;10115;50.906;4.438;2022-07-22T00:09:27;8.73;;;2.93;;
19905;SDS011;10115;50.906;4.438;2022-07-22T00:11:53;6.67;;;2.70;;
19905;SDS011;10115;50.906;4.438;2022-07-22T00:14:18;3.47;;;2.80;;
19905;SDS011;10115;50.906;4.438;2022-07-22T00:16:44;3.43;;;2.47;;
19905;SDS011;10115;50.906;4.438;2022-07-22T00:19:10;6.53;;;3.13;;
19905;SDS011;10115;50.906;4.438;2022-07-22T00:21:36;5.17;;;2.93;;
19905;SDS011;10115;50.906;4.438;2022-07-22T00:24:02;9.27;;;2.87;;
19905;SDS011;10115;50.906;4.438;2022-07-22T00:26:28;8.20;;;2.67;;
19905;SDS011;10115;50.906;4.438;2022-07-22T00:28:54;9.03;;;2.83;;
19905;SDS011;10115;50.906;4.438;2022-07-22T00:31:20;5.43;;;3.03;;
19905;SDS011;10115;50.906;4.438;2022-07-22T00:33:46;5.30;;;3.20;;
19905;SDS011;10115;50.906;4.438;2022-07-22T00:36:11;9.00;;;3.10;;
19905;SDS011;10115;50.906;4.438;2022-07-22T00:38:37;10.17;;;2.93;;
19905;SDS011;10115;50.906;4.438;2022-07-22T00:41:03;3.30;;;2.43;;
19905;SDS011;10115;50.906;4.438;2022-07-22T00:43:48;9.50;;;3.10;;
19905;SDS011;10115;50.906;4.438;2022-07-22T00:46:22;6.13;;;2.87;;
19905;SDS011;10115;50.906;4.438;2022-07-22T00:48:49;10.97;;;3.77;;
19905;SDS011;10115;50.906;4.438;2022-07-22T00:51:15;2.80;;;2.60;;
19905;SDS011;10115;50.906;4.438;2022-07-22T00:53:42;5.57;;;3.07;;
19905;SDS011;10115;50.906;4.438;2022-07-22T00:56:09;7.60;;;2.53;;
19905;SDS011;10115;50.906;4.438;2022-07-22T00:58:35;4.87;;;2.93;;
19905;SDS011;10115;50.906;4.438;2022-07-22T01:01:01;7.10;;;2.90;;
19905;SDS011;10115;50.906;4.438;2022-07-22T01:03:26;6.87;;;2.93;;
19905;SDS011;10115;50.906;4.438;2022-07-22T01:05:52;9.17;;;2.83;;
19905;SDS011;10115;50.906;4.438;2022-07-22T01:08:18;4.90;;;2.40;;
19905;SDS011;10115;50.906;4.438;2022-07-22T01:10:43;8.10;;;2.67;;
19905;SDS011;10115;50.906;4.438;2022-07-22T01:13:09;12.23;;;3.07;;
19905;SDS011;10115;50.906;4.438;2022-07-22T01:15:35;9.37;;;2.37;;
19905;SDS011;10115;50.906;4.438;2022-07-22T01:18:01;4.53;;;2.43;;
19905;SDS011;10115;50.906;4.438;2022-07-22T01:20:27;6.10;;;2.43;;
19905;SDS011;10115;50.906;4.438;2022-07-22T01:22:53;4.53;;;2.70;;
19905;SDS011;10115;50.906;4.438;2022-07-22T01:25:18;5.43;;;3.10;;
19905;SDS011;10115;50.906;4.438;2022-07-22T01:27:44;9.30;;;3.53;;
19905;SDS011;10115;50.906;4.438;2022-07-22T01:30:10;4.83;;;2.90;;
19905;SDS011;10115;50.906;4.438;2022-07-22T01:32:36;2.90;;;2.47;;
19905;SDS011;10115;50.906;4.438;2022-07-22T01:35:01;8.53;;;3.53;;
19905;SDS011;10115;50.906;4.438;2022-07-22T01:37:28;6.20;;;3.40;;
19905;SDS011;10115;50.906;4.438;2022-07-22T01:39:54;4.27;;;2.60;;
19905;SDS011;10115;50.906;4.438;2022-07-22T01:42:19;5.97;;;3.10;;
19905;SDS011;10115;50.906;4.438;2022-07-22T01:44:45;10.53;;;3.07;;
19905;SDS011;10115;50.906;4.438;2022-07-22T01:47:11;7.53;;;2.90;;
19905;SDS011;10115;50.906;4.438;2022-07-22T01:49:36;6.43;;;3.00;;
19905;SDS011;10115;50.906;4.438;2022-07-22T01:52:05;5.23;;;2.93;;
19905;SDS011;10115;50.906;4.438;2022-07-22T01:54:31;5.80;;;3.10;;
19905;SDS011;10115;50.906;4.438;2022-07-22T01:56:56;7.77;;;2.70;;
19905;SDS011;10115;50.906;4.438;2022-07-22T01:59:22;3.33;;;2.53;;
19905;SDS011;10115;50.906;4.438;2022-07-22T02:01:48;6.43;;;3.93;;
19905;SDS011;10115;50.906;4.438;2022-07-22T02:04:13;5.87;;;3.37;;
19905;SDS011;10115;50.906;4.438;2022-07-22T02:06:39;4.80;;;2.60;;
19905;SDS011;10115;50.906;4.438;2022-07-22T02:09:05;8.43;;;3.10;;
19905;SDS011;10115;50.906;4.438;2022-07-22T02:11:31;8.27;;;2.83;;
19905;SDS011;10115;50.906;4.438;2022-07-22T02:13:56;8.90;;;3.07;;
19905;SDS011;10115;50.906;4.438;2022-07-22T02:16:22;4.00;;;2.90;;
19905;SDS011;10115;50.906;4.438;2022-07-22T02:18:48;3.03;;;2.83;;
19905;SDS011;10115;50.906;4.438;2022-07-22T02:21:14;11.63;;;3.87;;
19905;SDS011;10115;50.906;4.438;2022-07-22T02:23:39;7.47;;;3.57;;
19905;SDS011;10115;50.906;4.438;2022-07-22T02:26:05;3.23;;;2.93;;
19905;SDS011;10115;50.906;4.438;2022-07-22T02:28:31;5.77;;;3.07;;
19905;SDS011;10115;50.906;4.438;2022-07-22T02:30:57;4.70;;;3.30;;
19905;SDS011;10115;50.906;4.438;2022-07-22T02:33:22;9.40;;;3.63;;
19905;SDS011;10115;50.906;4.438;2022-07-22T02:35:48;6.33;;;3.57;;
19905;SDS011;10115;50.906;4.438;2022-07-22T02:38:13;3.93;;;3.47;;
19905;SDS011;10115;50.906;4.438;2022-07-22T02:40:39;9.13;;;3.27;;
19905;SDS011;10115;50.906;4.438;2022-07-22T02:43:05;4.10;;;3.67;;
19905;SDS011;10115;50.906;4.438;2022-07-22T02:45:31;6.27;;;3.17;;
19905;SDS011;10115;50.906;4.438;2022-07-22T02:47:57;3.87;;;3.00;;
19905;SDS011;10115;50.906;4.438;2022-07-22T02:50:24;5.20;;;3.30;;
19905;SDS011;10115;50.906;4.438;2022-07-22T02:52:50;6.40;;;3.40;;
19905;SDS011;10115;50.906;4.438;2022-07-22T02:55:16;11.60;;;3.80;;
19905;SDS011;10115;50.906;4.438;2022-07-22T02:57:42;3.43;;;3.07;;
19905;SDS011;10115;50.906;4.438;2022-07-22T03:00:08;8.03;;;3.43;;
19905;SDS011;10115;50.906;4.438;2022-07-22T03:02:36;6.87;;;3.10;;
19905;SDS011;10115;50.906;4.438;2022-07-22T03:05:02;3.87;;;2.93;;
19905;SDS011;10115;50.906;4.438;2022-07-22T03:07:29;7.47;;;3.20;;
19905;SDS011;10115;50.906;4.438;2022-07-22T03:09:55;3.53;;;3.23;;
19905;SDS011;10115;50.906;4.438;2022-07-22T03:12:20;5.27;;;2.97;;
19905;SDS011;10115;50.906;4.438;2022-07-22T03:14:46;3.77;;;3.03;;
19905;SDS011;10115;50.906;4.438;2022-07-22T03:17:12;6.80;;;3.10;;
19905;SDS011;10115;50.906;4.438;2022-07-22T03:19:37;6.70;;;3.33;;
19905;SDS011;10115;50.906;4.438;2022-07-22T03:22:03;5.33;;;3.33;;
19905;SDS011;10115;50.906;4.438;2022-07-22T03:24:29;4.60;;;3.63;;
19905;SDS011;10115;50.906;4.438;2022-07-22T03:26:56;6.43;;;3.00;;
19905;SDS011;10115;50.906;4.438;2022-07-22T03:29:21;6.50;;;3.13;;
19905;SDS011;10115;50.906;4.438;2022-07-22T03:31:47;6.13;;;3.83;;
19905;SDS011;10115;50.906;4.438;2022-07-22T03:34:13;7.63;;;3.47;;
19905;SDS011;10115;50.906;4.438;2022-07-22T03:36:39;5.83;;;2.97;;
19905;SDS011;10115;50.906;4.438;2022-07-22T03:39:04;13.83;;;3.67;;
19905;SDS011;10115;50.906;4.438;2022-07-22T03:41:30;5.17;;;3.17;;
19905;SDS011;10115;50.906;4.438;2022-07-22T03:43:56;8.67;;;3.50;;
19905;SDS011;10115;50.906;4.438;2022-07-22T03:46:22;14.30;;;4.03;;
19905;SDS011;10115;50.906;4.438;2022-07-22T03:48:47;9.67;;;3.90;;
19905;SDS011;10115;50.906;4.438;2022-07-22T03:51:13;5.87;;;2.87;;
19905;SDS011;10115;50.906;4.438;2022-07-22T03:53:39;8.90;;;3.67;;
19905;SDS011;10115;50.906;4.438;2022-07-22T03:56:05;3.53;;;2.87;;
19905;SDS011;10115;50.906;4.438;2022-07-22T03:58:31;4.03;;;2.50;;
19905;SDS011;10115;50.906;4.438;2022-07-22T04:00:57;9.00;;;3.17;;
19905;SDS011;10115;50.906;4.438;2022-07-22T04:03:22;11.20;;;3.60;;
19905;SDS011;10115;50.906;4.438;2022-07-22T04:05:48;8.03;;;3.67;;
19905;SDS011;10115;50.906;4.438;2022-07-22T04:08:14;3.30;;;2.90;;
19905;SDS011;10115;50.906;4.438;2022-07-22T04:10:43;8.47;;;3.37;;
19905;SDS011;10115;50.906;4.438;2022-07-22T04:13:09;4.23;;;3.40;;
19905;SDS011;10115;50.906;4.438;2022-07-22T04:15:34;10.43;;;3.80;;
19905;SDS011;10115;50.906;4.438;2022-07-22T04:18:00;6.87;;;3.73;;
19905;SDS011;10115;50.906;4.438;2022-07-22T04:20:26;12.43;;;4.53;;
19905;SDS011;10115;50.906;4.438;2022-07-22T04:22:51;12.17;;;4.10;;
19905;SDS011;10115;50.906;4.438;2022-07-22T04:25:18;10.03;;;3.77;;
19905;SDS011;10115;50.906;4.438;2022-07-22T04:27:44;15.27;;;4.03;;
19905;SDS011;10115;50.906;4.438;2022-07-22T04:30:09;7.83;;;3.70;;
19905;SDS011;10115;50.906;4.438;2022-07-22T04:32:35;11.53;;;3.67;;
19905;SDS011;10115;50.906;4.438;2022-07-22T04:35:01;4.10;;;3.80;;
19905;SDS011;10115;50.906;4.438;2022-07-22T04:37:27;10.87;;;4.07;;
19905;SDS011;10115;50.906;4.438;2022-07-22T04:39:52;5.67;;;4.10;;
19905;SDS011;10115;50.906;4.438;2022-07-22T04:42:18;6.63;;;3.77;;
19905;SDS011;10115;50.906;4.438;2022-07-22T04:44:44;8.27;;;4.00;;
19905;SDS011;10115;50.906;4.438;2022-07-22T04:47:10;7.67;;;4.33;;
19905;SDS011;10115;50.906;4.438;2022-07-22T04:49:36;6.57;;;3.53;;
19905;SDS011;10115;50.906;4.438;2022-07-22T04:52:01;4.20;;;3.80;;
19905;SDS011;10115;50.906;4.438;2022-07-22T04:54:27;4.77;;;4.07;;
19905;SDS011;10115;50.906;4.438;2022-07-22T04:56:53;7.77;;;4.53;;
19905;SDS011;10115;50.906;4.438;2022-07-22T04:59:19;8.37;;;3.50;;
19905;SDS011;10115;50.906;4.438;2022-07-22T05:01:44;9.00;;;4.13;;
19905;SDS011;10115;50.906;4.438;2022-07-22T05:04:10;5.10;;;4.00;;
19905;SDS011;10115;50.906;4.438;2022-07-22T05:06:36;11.87;;;4.80;;
19905;SDS011;10115;50.906;4.438;2022-07-22T05:09:01;6.20;;;4.30;;
19905;SDS011;10115;50.906;4.438;2022-07-22T05:11:27;8.90;;;3.87;;
19905;SDS011;10115;50.906;4.438;2022-07-22T05:13:53;13.43;;;4.10;;
19905;SDS011;10115;50.906;4.438;2022-07-22T05:16:19;9.03;;;4.17;;
19905;SDS011;10115;50.906;4.438;2022-07-22T05:18:44;6.67;;;4.40;;
19905;SDS011;10115;50.906;4.438;2022-07-22T05:21:10;5.43;;;4.30;;
19905;SDS011;10115;50.906;4.438;2022-07-22T05:23:36;8.03;;;4.13;;
19905;SDS011;10115;50.906;4.438;2022-07-22T05:26:03;10.80;;;5.00;;
19905;SDS011;10115;50.906;4.438;2022-07-22T05:28:30;12.30;;;5.33;;
19905;SDS011;10115;50.906;4.438;2022-07-22T05:30:55;17.90;;;6.00;;
19905;SDS011;10115;50.906;4.438;2022-07-22T05:33:21;11.00;;;4.80;;
19905;SDS011;10115;50.906;4.438;2022-07-22T05:35:47;9.10;;;5.97;;
19905;SDS011;10115;50.906;4.438;2022-07-22T05:38:12;12.90;;;5.77;;
19905;SDS011;10115;50.906;4.438;2022-07-22T05:40:38;13.30;;;5.33;;
19905;SDS011;10115;50.906;4.438;2022-07-22T05:43:04;6.47;;;4.60;;
19905;SDS011;10115;50.906;4.438;2022-07-22T05:45:29;8.53;;;4.90;;
19905;SDS011;10115;50.906;4.438;2022-07-22T05:47:55;10.30;;;5.10;;
19905;SDS011;10115;50.906;4.438;2022-07-22T05:50:21;8.27;;;5.17;;
19905;SDS011;10115;50.906;4.438;2022-07-22T05:52:47;11.70;;;5.03;;
19905;SDS011;10115;50.906;4.438;2022-07-22T05:55:12;11.83;;;5.63;;
19905;SDS011;10115;50.906;4.438;2022-07-22T05:57:38;11.33;;;5.40;;
19905;SDS011;10115;50.906;4.438;2022-07-22T06:00:04;7.57;;;5.30;;
19905;SDS011;10115;50.906;4.438;2022-07-22T06:02:31;9.10;;;5.40;;
19905;SDS011;10115;50.906;4.438;2022-07-22T06:04:57;8.40;;;5.27;;
19905;SDS011;10115;50.906;4.438;2022-07-22T06:07:25;7.53;;;5.30;;
19905;SDS011;10115;50.906;4.438;2022-07-22T06:09:51;14.40;;;5.53;;
19905;SDS011;10115;50.906;4.438;2022-07-22T06:12:17;13.03;;;5.67;;
19905;SDS011;10115;50.906;4.438;2022-07-22T06:14:43;9.43;;;5.07;;
19905;SDS011;10115;50.906;4.438;2022-07-22T06:17:08;12.40;;;6.13;;
19905;SDS011;10115;50.906;4.438;2022-07-22T06:19:34;10.30;;;5.27;;
19905;SDS011;10115;50.906;4.438;2022-07-22T06:22:00;8.97;;;5.10;;
19905;SDS011;10115;50.906;4.438;2022-07-22T06:24:26;9.77;;;5.57;;
19905;SDS011;10115;50.906;4.438;2022-07-22T06:26:51;11.07;;;5.57;;
19905;SDS011;10115;50.906;4.438;2022-07-22T06:29:17;11.83;;;5.27;;
19905;SDS011;10115;50.906;4.438;2022-07-22T06:31:43;8.43;;;4.67;;
19905;SDS011;10115;50.906;4.438;2022-07-22T06:34:08;10.23;;;4.73;;
19905;SDS011;10115;50.906;4.438;2022-07-22T06:36:34;9.53;;;4.43;;
19905;SDS011;10115;50.906;4.438;2022-07-22T06:39:00;10.03;;;4.97;;
19905;SDS011;10115;50.906;4.438;2022-07-22T06:41:26;8.17;;;4.37;;
19905;SDS011;10115;50.906;4.438;2022-07-22T06:43:52;4.33;;;3.83;;
19905;SDS011;10115;50.906;4.438;2022-07-22T06:46:18;6.33;;;3.83;;
19905;SDS011;10115;50.906;4.438;2022-07-22T06:48:43;6.43;;;4.23;;
19905;SDS011;10115;50.906;4.438;2022-07-22T06:51:09;8.73;;;4.10;;
19905;SDS011;10115;50.906;4.438;2022-07-22T06:53:35;7.57;;;4.27;;
19905;SDS011;10115;50.906;4.438;2022-07-22T06:56:01;8.97;;;3.67;;
19905;SDS011;10115;50.906;4.438;2022-07-22T06:58:27;6.87;;;4.03;;
19905;SDS011;10115;50.906;4.438;2022-07-22T07:00:52;8.17;;;4.03;;
19905;SDS011;10115;50.906;4.438;2022-07-22T07:03:18;8.40;;;3.97;;
19905;SDS011;10115;50.906;4.438;2022-07-22T07:05:44;6.47;;;3.70;;
19905;SDS011;10115;50.906;4.438;2022-07-22T07:08:10;9.13;;;3.80;;
19905;SDS011;10115;50.906;4.438;2022-07-22T07:10:35;4.50;;;3.60;;
19905;SDS011;10115;50.906;4.438;2022-07-22T07:13:01;6.90;;;3.90;;
19905;SDS011;10115;50.906;4.438;2022-07-22T07:15:27;5.80;;;3.23;;
19905;SDS011;10115;50.906;4.438;2022-07-22T07:17:53;9.40;;;3.77;;
19905;SDS011;10115;50.906;4.438;2022-07-22T07:20:21;7.53;;;2.70;;
19905;SDS011;10115;50.906;4.438;2022-07-22T07:22:47;6.30;;;3.33;;
19905;SDS011;10115;50.906;4.438;2022-07-22T07:25:14;3.33;;;2.63;;
19905;SDS011;10115;50.906;4.438;2022-07-22T07:27:40;6.60;;;3.50;;
19905;SDS011;10115;50.906;4.438;2022-07-22T07:30:06;5.77;;;3.07;;
19905;SDS011;10115;50.906;4.438;2022-07-22T07:32:34;3.90;;;3.27;;
19905;SDS011;10115;50.906;4.438;2022-07-22T07:35:01;7.07;;;4.43;;
19905;SDS011;10115;50.906;4.438;2022-07-22T07:37:27;4.20;;;3.27;;
19905;SDS011;10115;50.906;4.438;2022-07-22T07:39:53;6.30;;;3.47;;
19905;SDS011;10115;50.906;4.438;2022-07-22T07:42:19;3.60;;;3.30;;
19905;SDS011;10115;50.906;4.438;2022-07-22T07:44:44;6.13;;;3.00;;
19905;SDS011;10115;50.906;4.438;2022-07-22T07:47:10;5.60;;;3.00;;
19905;SDS011;10115;50.906;4.438;2022-07-22T07:49:37;5.97;;;3.20;;
19905;SDS011;10115;50.906;4.438;2022-07-22T07:52:03;6.87;;;3.60;;
19905;SDS011;10115;50.906;4.438;2022-07-22T07:54:28;5.43;;;3.63;;
19905;SDS011;10115;50.906;4.438;2022-07-22T07:56:54;6.57;;;3.90;;
19905;SDS011;10115;50.906;4.438;2022-07-22T07:59:20;5.67;;;3.17;;
19905;SDS011;10115;50.906;4.438;2022-07-22T08:01:45;4.13;;;3.73;;
19905;SDS011;10115;50.906;4.438;2022-07-22T08:04:11;4.40;;;3.67;;
19905;SDS011;10115;50.906;4.438;2022-07-22T08:06:37;7.00;;;3.80;;
19905;SDS011;10115;50.906;4.438;2022-07-22T08:09:03;5.53;;;2.90;;
19905;SDS011;10115;50.906;4.438;2022-07-22T08:11:29;10.30;;;3.37;;
19905;SDS011;10115;50.906;4.438;2022-07-22T08:13:54;5.00;;;3.33;;
19905;SDS011;10115;50.906;4.438;2022-07-22T08:16:20;5.13;;;3.73;;
19905;SDS011;10115;50.906;4.438;2022-07-22T08:18:46;4.37;;;3.80;;
19905;SDS011;10115;50.906;4.438;2022-07-22T08:21:11;5.70;;;3.27;;
19905;SDS011;10115;50.906;4.438;2022-07-22T08:23:37;4.27;;;3.03;;
19905;SDS011;10115;50.906;4.438;2022-07-22T08:26:03;6.43;;;3.57;;
19905;SDS011;10115;50.906;4.438;2022-07-22T08:28:28;10.73;;;3.63;;
19905;SDS011;10115;50.906;4.438;2022-07-22T08:30:54;8.23;;;3.40;;
19905;SDS011;10115;50.906;4.438;2022-07-22T08:33:20;7.43;;;3.83;;
19905;SDS011;10115;50.906;4.438;2022-07-22T08:35:45;7.10;;;3.63;;
19905;SDS011;10115;50.906;4.438;2022-07-22T08:38:11;3.60;;;3.30;;
19905;SDS011;10115;50.906;4.438;2022-07-22T08:40:37;4.50;;;3.00;;
19905;SDS011;10115;50.906;4.438;2022-07-22T08:43:03;6.87;;;3.40;;
19905;SDS011;10115;50.906;4.438;2022-07-22T08:45:29;6.33;;;2.93;;
19905;SDS011;10115;50.906;4.438;2022-07-22T08:47:55;3.33;;;3.03;;
19905;SDS011;10115;50.906;4.438;2022-07-22T08:50:21;3.47;;;3.17;;
19905;SDS011;10115;50.906;4.438;2022-07-22T08:52:48;3.07;;;2.80;;
19905;SDS011;10115;50.906;4.438;2022-07-22T08:55:14;5.43;;;2.83;;
19905;SDS011;10115;50.906;4.438;2022-07-22T08:57:46;3.83;;;3.43;;
19905;SDS011;10115;50.906;4.438;2022-07-22T09:00:14;4.93;;;3.03;;
19905;SDS011;10115;50.906;4.438;2022-07-22T09:02:42;4.07;;;3.03;;
19905;SDS011;10115;50.906;4.438;2022-07-22T09:05:09;2.80;;;2.60;;
19905;SDS011;10115;50.906;4.438;2022-07-22T09:07:37;6.67;;;2.90;;
19905;SDS011;10115;50.906;4.438;2022-07-22T09:10:05;7.17;;;3.60;;
19905;SDS011;10115;50.906;4.438;2022-07-22T09:12:32;7.00;;;3.10;;
19905;SDS011;10115;50.906;4.438;2022-07-22T09:15:00;3.10;;;2.77;;
19905;SDS011;10115;50.906;4.438;2022-07-22T09:19:56;5.47;;;3.63;;
19905;SDS011;10115;50.906;4.438;2022-07-22T09:22:39;5.03;;;3.17;;
19905;SDS011;10115;50.906;4.438;2022-07-22T09:28:08;5.90;;;3.30;;
19905;SDS011;10115;50.906;4.438;2022-07-22T09:30:38;4.20;;;2.97;;
19905;SDS011;10115;50.906;4.438;2022-07-22T09:33:12;5.90;;;3.00;;
19905;SDS011;10115;50.906;4.438;2022-07-22T09:35:38;2.73;;;2.50;;
19905;SDS011;10115;50.906;4.438;2022-07-22T09:38:05;6.43;;;2.77;;
19905;SDS011;10115;50.906;4.438;2022-07-22T09:40:34;4.37;;;2.50;;
19905;SDS011;10115;50.906;4.438;2022-07-22T09:43:02;3.90;;;3.10;;
19905;SDS011;10115;50.906;4.438;2022-07-22T09:45:30;5.93;;;2.57;;
19905;SDS011;10115;50.906;4.438;2022-07-22T09:47:57;5.30;;;2.90;;
19905;SDS011;10115;50.906;4.438;2022-07-22T09:50:31;5.00;;;2.73;;
19905;SDS011;10115;50.906;4.438;2022-07-22T09:52:58;6.57;;;2.67;;
19905;SDS011;10115;50.906;4.438;2022-07-22T09:55:25;3.47;;;2.70;;
19905;SDS011;10115;50.906;4.438;2022-07-22T09:57:54;9.27;;;3.40;;
19905;SDS011;10115;50.906;4.438;2022-07-22T10:00:21;2.87;;;2.63;;
19905;SDS011;10115;50.906;4.438;2022-07-22T10:02:56;2.83;;;2.63;;
19905;SDS011;10115;50.906;4.438;2022-07-22T10:05:25;4.97;;;2.83;;
19905;SDS011;10115;50.906;4.438;2022-07-22T10:07:52;3.67;;;3.10;;
19905;SDS011;10115;50.906;4.438;2022-07-22T10:10:20;3.40;;;2.87;;
19905;SDS011;10115;50.906;4.438;2022-07-22T10:12:48;2.97;;;2.77;;
19905;SDS011;10115;50.906;4.438;2022-07-22T10:15:15;3.43;;;3.17;;
19905;SDS011;10115;50.906;4.438;2022-07-22T10:17:42;3.67;;;3.00;;
19905;SDS011;10115;50.906;4.438;2022-07-22T10:20:13;4.93;;;3.30;;
19905;SDS011;10115;50.906;4.438;2022-07-22T10:22:47;5.80;;;3.37;;
19905;SDS011;10115;50.906;4.438;2022-07-22T10:25:15;2.90;;;2.60;;
19905;SDS011;10115;50.906;4.438;2022-07-22T10:30:14;5.57;;;4.03;;
19905;SDS011;10115;50.906;4.438;2022-07-22T10:32:42;6.93;;;3.70;;
19905;SDS011;10115;50.906;4.438;2022-07-22T10:40:21;4.67;;;2.93;;
19905;SDS011;10115;50.906;4.438;2022-07-22T10:43:11;3.85;;;2.80;;
19905;SDS011;10115;50.906;4.438;2022-07-22T10:48:07;5.40;;;3.10;;
19905;SDS011;10115;50.906;4.438;2022-07-22T10:53:07;4.07;;;3.03;;
19905;SDS011;10115;50.906;4.438;2022-07-22T10:55:37;6.13;;;3.00;;
19905;SDS011;10115;50.906;4.438;2022-07-22T11:01:00;4.53;;;2.50;;
19905;SDS011;10115;50.906;4.438;2022-07-22T11:03:31;4.95;;;3.25;;
19905;SDS011;10115;50.906;4.438;2022-07-22T11:09:06;2.85;;;2.65;;
19905;SDS011;10115;50.906;4.438;2022-07-22T11:11:35;2.73;;;2.53;;
19905;SDS011;10115;50.906;4.438;2022-07-22T11:14:15;3.27;;;3.00;;
19905;SDS011;10115;50.906;4.438;2022-07-22T11:16:41;3.00;;;2.70;;
19905;SDS011;10115;50.906;4.438;2022-07-22T11:19:08;5.13;;;2.93;;
19905;SDS011;10115;50.906;4.438;2022-07-22T11:21:34;6.77;;;3.83;;
19905;SDS011;10115;50.906;4.438;2022-07-22T11:24:01;5.63;;;3.20;;
19905;SDS011;10115;50.906;4.438;2022-07-22T11:26:33;4.27;;;3.40;;
19905;SDS011;10115;50.906;4.438;2022-07-22T11:29:05;5.50;;;3.33;;
19905;SDS011;10115;50.906;4.438;2022-07-22T11:31:32;5.00;;;2.77;;
19905;SDS011;10115;50.906;4.438;2022-07-22T11:34:19;4.13;;;2.87;;
19905;SDS011;10115;50.906;4.438;2022-07-22T11:36:45;6.27;;;3.13;;
19905;SDS011;10115;50.906;4.438;2022-07-22T11:39:12;5.70;;;3.00;;
19905;SDS011;10115;50.906;4.438;2022-07-22T11:41:39;4.63;;;2.93;;
19905;SDS011;10115;50.906;4.438;2022-07-22T11:44:06;3.17;;;2.87;;
19905;SDS011;10115;50.906;4.438;2022-07-22T11:46:36;4.40;;;2.63;;
19905;SDS011;10115;50.906;4.438;2022-07-22T11:49:03;4.30;;;3.43;;
19905;SDS011;10115;50.906;4.438;2022-07-22T11:51:30;3.70;;;3.07;;
19905;SDS011;10115;50.906;4.438;2022-07-22T11:53:57;5.23;;;3.27;;
19905;SDS011;10115;50.906;4.438;2022-07-22T11:56:23;2.97;;;2.77;;
19905;SDS011;10115;50.906;4.438;2022-07-22T11:58:50;3.30;;;2.90;;
19905;SDS011;10115;50.906;4.438;2022-07-22T12:01:19;3.95;;;3.17;;
19905;SDS011;10115;50.906;4.438;2022-07-22T12:03:48;4.67;;;3.47;;
19905;SDS011;10115;50.906;4.438;2022-07-22T12:06:16;4.50;;;3.20;;
19905;SDS011;10115;50.906;4.438;2022-07-22T12:08:44;4.22;;;2.88;;
19905;SDS011;10115;50.906;4.438;2022-07-22T12:11:12;3.42;;;3.13;;
19905;SDS011;10115;50.906;4.438;2022-07-22T12:13:41;6.10;;;3.45;;
19905;SDS011;10115;50.906;4.438;2022-07-22T12:18:51;4.75;;;3.15;;
19905;SDS011;10115;50.906;4.438;2022-07-22T12:21:17;4.05;;;3.30;;
19905;SDS011;10115;50.906;4.438;2022-07-22T12:23:49;4.18;;;2.65;;
19905;SDS011;10115;50.906;4.438;2022-07-22T12:26:19;6.82;;;3.25;;
19905;SDS011;10115;50.906;4.438;2022-07-22T12:31:48;2.78;;;2.47;;
19905;SDS011;10115;50.906;4.438;2022-07-22T12:36:57;6.25;;;3.42;;
19905;SDS011;10115;50.906;4.438;2022-07-22T12:39:23;5.97;;;3.08;;
19905;SDS011;10115;50.906;4.438;2022-07-22T12:41:50;4.80;;;3.20;;
19905;SDS011;10115;50.906;4.438;2022-07-22T12:44:18;6.85;;;3.53;;
19905;SDS011;10115;50.906;4.438;2022-07-22T12:46:52;5.65;;;2.75;;
19905;SDS011;10115;50.906;4.438;2022-07-22T12:49:21;11.55;;;3.22;;
19905;SDS011;10115;50.906;4.438;2022-07-22T12:52:04;5.65;;;2.83;;
19905;SDS011;10115;50.906;4.438;2022-07-22T12:54:38;6.95;;;2.80;;
19905;SDS011;10115;50.906;4.438;2022-07-22T12:57:05;5.93;;;2.63;;
19905;SDS011;10115;50.906;4.438;2022-07-22T12:59:32;4.53;;;2.80;;
19905;SDS011;10115;50.906;4.438;2022-07-22T13:01:58;3.72;;;2.67;;
19905;SDS011;10115;50.906;4.438;2022-07-22T13:04:24;4.65;;;2.95;;
19905;SDS011;10115;50.906;4.438;2022-07-22T13:06:50;4.93;;;3.17;;
19905;SDS011;10115;50.906;4.438;2022-07-22T13:09:15;4.90;;;2.90;;
19905;SDS011;10115;50.906;4.438;2022-07-22T13:11:41;5.07;;;2.55;;
19905;SDS011;10115;50.906;4.438;2022-07-22T13:14:12;2.65;;;2.35;;
19905;SDS011;10115;50.906;4.438;2022-07-22T13:16:39;2.55;;;2.38;;
19905;SDS011;10115;50.906;4.438;2022-07-22T13:19:05;2.63;;;2.42;;
19905;SDS011;10115;50.906;4.438;2022-07-22T13:21:31;7.97;;;3.25;;
19905;SDS011;10115;50.906;4.438;2022-07-22T13:23:57;3.40;;;2.42;;
19905;SDS011;10115;50.906;4.438;2022-07-22T13:26:23;5.57;;;3.03;;
19905;SDS011;10115;50.906;4.438;2022-07-22T13:28:50;3.28;;;2.90;;
19905;SDS011;10115;50.906;4.438;2022-07-22T13:31:16;4.35;;;2.97;;
19905;SDS011;10115;50.906;4.438;2022-07-22T13:33:42;2.90;;;2.70;;
19905;SDS011;10115;50.906;4.438;2022-07-22T13:36:08;3.53;;;2.75;;
19905;SDS011;10115;50.906;4.438;2022-07-22T13:38:33;5.50;;;3.15;;
19905;SDS011;10115;50.906;4.438;2022-07-22T13:40:59;4.10;;;3.13;;
19905;SDS011;10115;50.906;4.438;2022-07-22T13:43:25;5.10;;;3.25;;
19905;SDS011;10115;50.906;4.438;2022-07-22T13:45:51;5.43;;;3.03;;
19905;SDS011;10115;50.906;4.438;2022-07-22T13:48:18;3.45;;;3.17;;
19905;SDS011;10115;50.906;4.438;2022-07-22T13:50:45;4.85;;;3.42;;
19905;SDS011;10115;50.906;4.438;2022-07-22T13:53:11;6.38;;;3.03;;
19905;SDS011;10115;50.906;4.438;2022-07-22T13:55:37;8.07;;;3.40;;
19905;SDS011;10115;50.906;4.438;2022-07-22T13:58:04;6.72;;;3.13;;
19905;SDS011;10115;50.906;4.438;2022-07-22T14:00:30;3.40;;;2.85;;
19905;SDS011;10115;50.906;4.438;2022-07-22T14:02:57;3.45;;;2.70;;
19905;SDS011;10115;50.906;4.438;2022-07-22T14:05:23;6.60;;;3.35;;
19905;SDS011;10115;50.906;4.438;2022-07-22T14:07:48;3.47;;;2.67;;
19905;SDS011;10115;50.906;4.438;2022-07-22T14:10:14;3.45;;;2.90;;
19905;SDS011;10115;50.906;4.438;2022-07-22T14:12:40;6.40;;;3.13;;
19905;SDS011;10115;50.906;4.438;2022-07-22T14:15:06;3.67;;;2.50;;
19905;SDS011;10115;50.906;4.438;2022-07-22T14:17:33;4.43;;;2.78;;
19905;SDS011;10115;50.906;4.438;2022-07-22T14:19:58;5.85;;;3.53;;
19905;SDS011;10115;50.906;4.438;2022-07-22T14:22:24;3.75;;;3.10;;
19905;SDS011;10115;50.906;4.438;2022-07-22T14:24:50;6.80;;;3.58;;
19905;SDS011;10115;50.906;4.438;2022-07-22T14:27:16;3.47;;;3.17;;
19905;SDS011;10115;50.906;4.438;2022-07-22T14:29:42;3.75;;;3.25;;
19905;SDS011;10115;50.906;4.438;2022-07-22T14:32:07;6.80;;;3.63;;
19905;SDS011;10115;50.906;4.438;2022-07-22T14:34:33;4.95;;;2.88;;
19905;SDS011;10115;50.906;4.438;2022-07-22T14:36:59;3.47;;;3.17;;
19905;SDS011;10115;50.906;4.438;2022-07-22T14:39:25;7.40;;;3.58;;
19905;SDS011;10115;50.906;4.438;2022-07-22T14:41:50;5.60;;;3.03;;
19905;SDS011;10115;50.906;4.438;2022-07-22T14:44:16;4.57;;;3.63;;
19905;SDS011;10115;50.906;4.438;2022-07-22T14:46:41;7.30;;;4.15;;
19905;SDS011;10115;50.906;4.438;2022-07-22T14:49:07;10.35;;;3.47;;
19905;SDS011;10115;50.906;4.438;2022-07-22T14:51:33;4.45;;;3.40;;
19905;SDS011;10115;50.906;4.438;2022-07-22T14:53:59;4.13;;;3.03;;
19905;SDS011;10115;50.906;4.438;2022-07-22T14:56:24;5.97;;;3.80;;
19905;SDS011;10115;50.906;4.438;2022-07-22T14:58:50;7.07;;;3.55;;
19905;SDS011;10115;50.906;4.438;2022-07-22T15:01:16;4.22;;;3.42;;
19905;SDS011;10115;50.906;4.438;2022-07-22T15:03:41;4.03;;;3.17;;
19905;SDS011;10115;50.906;4.438;2022-07-22T15:06:08;4.80;;;3.40;;
19905;SDS011;10115;50.906;4.438;2022-07-22T15:08:34;4.18;;;3.53;;
19905;SDS011;10115;50.906;4.438;2022-07-22T15:10:59;6.60;;;4.20;;
19905;SDS011;10115;50.906;4.438;2022-07-22T15:13:25;4.45;;;3.78;;
19905;SDS011;10115;50.906;4.438;2022-07-22T15:15:52;6.03;;;3.08;;